createdAt,value
2023-01-12T00:01:47.958Z,18.80
2023-01-12T00:04:15.703Z,18.70
2023-01-12T00:06:42.673Z,18.70
2023-01-12T00:09:10.259Z,18.70
2023-01-12T00:11:38.678Z,18.70
2023-01-12T00:14:06.965Z,18.60
2023-01-12T00:16:40.961Z,18.60
2023-01-12T00:19:12.240Z,18.60
2023-01-12T00:22:07.149Z,18.50
2023-01-12T00:24:37.893Z,18.50
2023-01-12T00:27:07.200Z,18.40
2023-01-12T00:29:34.664Z,18.40
2023-01-12T00:32:01.400Z,18.40
2023-01-12T00:34:29.713Z,18.40
2023-01-12T00:36:57.636Z,18.30
2023-01-12T00:39:24.405Z,18.30
2023-01-12T00:42:09.750Z,18.30
2023-01-12T00:44:55.116Z,18.20
2023-01-12T00:47:21.807Z,18.20
2023-01-12T00:49:49.419Z,18.20
2023-01-12T00:52:29.883Z,18.20
2023-01-12T00:54:58.413Z,18.10
2023-01-12T00:57:25.194Z,18.10
2023-01-12T00:59:55.107Z,18.00
2023-01-12T01:02:22.959Z,18.00
2023-01-12T01:04:50.531Z,18.00
2023-01-12T01:07:18.383Z,18.00
2023-01-12T01:09:45.251Z,18.00
2023-01-12T01:12:12.215Z,18.00
2023-01-12T01:14:39.423Z,17.90
2023-01-12T01:17:06.244Z,17.90
2023-01-12T01:19:33.011Z,17.90
2023-01-12T01:21:59.703Z,17.90
2023-01-12T01:24:26.493Z,17.80
2023-01-12T01:26:53.314Z,17.80
2023-01-12T01:29:20.090Z,17.80
2023-01-12T01:31:49.840Z,17.80
2023-01-12T01:34:16.647Z,17.80
2023-01-12T01:36:43.380Z,17.70
2023-01-12T01:39:10.247Z,17.70
2023-01-12T01:41:37.001Z,17.70
2023-01-12T01:44:29.472Z,17.70
2023-01-12T01:47:09.361Z,17.70
2023-01-12T01:49:46.072Z,17.60
2023-01-12T01:52:20.566Z,17.60
2023-01-12T01:54:53.469Z,17.60
2023-01-12T01:57:22.439Z,17.60
2023-01-12T01:59:53.679Z,17.60
2023-01-12T02:02:20.964Z,17.50
2023-01-12T02:04:47.803Z,17.50
2023-01-12T02:07:14.570Z,17.50
2023-01-12T02:09:41.300Z,17.40
2023-01-12T02:12:27.125Z,17.50
2023-01-12T02:15:13.669Z,17.40
2023-01-12T02:17:55.269Z,17.40
2023-01-12T02:20:59.966Z,17.40
2023-01-12T02:24:02.359Z,17.40
2023-01-12T02:26:41.448Z,17.40
2023-01-12T02:29:39.539Z,17.30
2023-01-12T02:32:49.935Z,17.30
2023-01-12T02:35:42.444Z,17.30
2023-01-12T02:38:35.673Z,17.30
2023-01-12T02:41:45.362Z,17.20
2023-01-12T02:44:24.804Z,17.20
2023-01-12T02:46:52.474Z,17.20
2023-01-12T02:49:22.980Z,17.20
2023-01-12T02:51:56.158Z,17.20
2023-01-12T02:54:24.942Z,17.20
2023-01-12T02:56:55.201Z,17.10
2023-01-12T02:59:34.235Z,17.10
2023-01-12T03:02:06.311Z,17.10
2023-01-12T03:04:33.397Z,17.10
2023-01-12T03:07:00.072Z,17.10
2023-01-12T03:09:36.570Z,17.10
2023-01-12T03:12:12.125Z,17.10
2023-01-12T03:14:42.987Z,17.10
2023-01-12T03:17:16.187Z,17.00
2023-01-12T03:19:45.467Z,17.00
2023-01-12T03:22:15.095Z,17.00
2023-01-12T03:24:48.862Z,16.90
2023-01-12T03:27:26.849Z,16.90
2023-01-12T03:30:02.121Z,16.90
2023-01-12T03:32:29.049Z,16.90
2023-01-12T03:34:55.859Z,16.90
2023-01-12T03:37:32.148Z,16.90
2023-01-12T03:40:17.185Z,16.90
2023-01-12T03:42:49.662Z,16.90
2023-01-12T03:45:28.206Z,16.90
2023-01-12T03:48:25.869Z,16.80
2023-01-12T03:50:58.931Z,16.80
2023-01-12T03:53:26.600Z,16.80
2023-01-12T03:55:58.404Z,16.80
2023-01-12T03:58:25.398Z,16.80
2023-01-12T04:00:52.169Z,16.80
2023-01-12T04:03:18.972Z,16.80
2023-01-12T04:05:46.149Z,16.80
2023-01-12T04:08:16.291Z,16.70
2023-01-12T04:10:43.315Z,16.70
2023-01-12T04:13:10.453Z,16.70
2023-01-12T04:15:42.123Z,16.70
2023-01-12T04:18:10.148Z,16.70
2023-01-12T04:20:37.109Z,16.70
2023-01-12T04:23:04.130Z,16.70
2023-01-12T04:25:31.060Z,16.70
2023-01-12T04:28:01.271Z,16.60
2023-01-12T04:30:30.640Z,16.60
2023-01-12T04:32:58.595Z,16.60
2023-01-12T04:35:26.292Z,16.60
2023-01-12T04:37:53.221Z,16.60
2023-01-12T04:40:20.581Z,16.60
2023-01-12T04:43:00.952Z,16.60
2023-01-12T04:45:37.266Z,16.60
2023-01-12T04:48:06.317Z,16.60
2023-01-12T04:50:33.460Z,16.50
2023-01-12T04:53:03.201Z,16.50
2023-01-12T04:55:30.033Z,16.50
2023-01-12T04:57:57.571Z,16.50
2023-01-12T05:00:24.604Z,16.50
2023-01-12T05:02:58.158Z,16.50
2023-01-12T05:05:25.715Z,16.50
2023-01-12T05:08:11.036Z,16.50
2023-01-12T05:10:37.798Z,16.40
2023-01-12T05:13:05.070Z,16.40
2023-01-12T05:15:31.762Z,16.40
2023-01-12T05:17:58.408Z,16.40
2023-01-12T05:20:25.080Z,16.40
2023-01-12T05:22:52.599Z,16.40
2023-01-12T05:25:19.273Z,16.40
2023-01-12T05:27:46.016Z,16.40
2023-01-12T05:30:12.888Z,16.40
2023-01-12T05:32:43.814Z,16.30
2023-01-12T05:35:10.840Z,16.40
2023-01-12T05:37:37.569Z,16.30
2023-01-12T05:40:05.165Z,16.30
2023-01-12T05:42:50.726Z,16.30
2023-01-12T05:45:17.637Z,16.30
2023-01-12T05:47:44.574Z,16.30
2023-01-12T05:50:14.185Z,16.30
2023-01-12T05:52:40.849Z,16.30
2023-01-12T05:55:11.026Z,16.30
2023-01-12T05:57:37.777Z,16.30
2023-01-12T06:00:05.142Z,16.30
2023-01-12T06:02:39.030Z,16.20
2023-01-12T06:05:09.591Z,16.20
2023-01-12T06:07:37.211Z,16.20
2023-01-12T06:10:05.646Z,16.20
2023-01-12T06:12:50.965Z,16.20
2023-01-12T06:15:17.709Z,16.20
2023-01-12T06:17:44.539Z,16.20
2023-01-12T06:20:16.816Z,16.20
2023-01-12T06:22:44.500Z,16.20
2023-01-12T06:25:11.892Z,16.20
2023-01-12T06:27:38.601Z,16.20
2023-01-12T06:30:08.421Z,16.20
2023-01-12T06:32:35.899Z,16.10
2023-01-12T06:35:14.020Z,16.10
2023-01-12T06:37:45.304Z,16.10
2023-01-12T06:40:12.733Z,16.10
2023-01-12T06:43:02.714Z,16.10
2023-01-12T06:49:06.625Z,16.10
2023-01-12T06:51:33.273Z,16.10
2023-01-12T06:54:01.341Z,16.10
2023-01-12T06:56:28.417Z,16.10
2023-01-12T06:58:55.156Z,16.00
2023-01-12T07:01:21.918Z,16.10
2023-01-12T07:03:48.702Z,16.00
2023-01-12T07:06:16.551Z,16.00
2023-01-12T07:08:54.975Z,16.00
2023-01-12T07:11:21.659Z,16.00
2023-01-12T07:13:48.316Z,16.00
2023-01-12T07:16:15.030Z,16.00
2023-01-12T07:18:41.808Z,16.00
2023-01-12T07:21:09.996Z,16.00
2023-01-12T07:23:37.868Z,16.00
2023-01-12T07:26:04.882Z,16.00
2023-01-12T07:28:33.632Z,16.00
2023-01-12T07:31:02.069Z,16.00
2023-01-12T07:33:29.094Z,16.00
2023-01-12T07:35:59.870Z,16.00
2023-01-12T07:38:28.024Z,16.00
2023-01-12T07:40:55.036Z,15.90
2023-01-12T07:43:21.849Z,15.90
2023-01-12T07:45:48.719Z,15.90
2023-01-12T07:48:16.379Z,15.90
2023-01-12T07:50:43.888Z,15.90
2023-01-12T07:53:10.603Z,15.90
2023-01-12T07:55:39.647Z,15.90
2023-01-12T07:58:09.571Z,15.90
2023-01-12T08:00:36.913Z,15.90
2023-01-12T08:03:13.947Z,15.90
2023-01-12T08:05:40.748Z,15.90
2023-01-12T08:08:08.286Z,15.90
2023-01-12T08:10:35.214Z,15.90
2023-01-12T08:13:02.311Z,15.90
2023-01-12T08:15:35.214Z,15.90
2023-01-12T08:18:06.604Z,15.90
2023-01-12T08:20:35.999Z,15.80
2023-01-12T08:26:51.125Z,15.80
2023-01-12T08:29:29.861Z,15.80
2023-01-12T08:32:01.121Z,15.80
2023-01-12T08:34:29.592Z,15.80
2023-01-12T08:37:00.057Z,15.80
2023-01-12T08:39:29.345Z,15.80
2023-01-12T08:41:56.376Z,15.80
2023-01-12T08:44:23.723Z,15.80
2023-01-12T08:46:52.291Z,15.80
2023-01-12T08:49:24.419Z,15.80
2023-01-12T08:51:51.874Z,15.80
2023-01-12T08:54:20.545Z,15.80
2023-01-12T08:56:49.130Z,15.80
2023-01-12T08:59:16.475Z,15.80
2023-01-12T09:01:43.627Z,15.80
2023-01-12T09:04:11.470Z,15.70
2023-01-12T09:06:53.418Z,15.80
2023-01-12T09:09:23.173Z,15.70
2023-01-12T09:12:45.267Z,15.70
2023-01-12T09:18:11.369Z,15.70
2023-01-12T09:20:49.158Z,15.70
2023-01-12T09:23:21.743Z,15.70
2023-01-12T09:26:46.084Z,15.70
2023-01-12T09:29:14.117Z,15.70
2023-01-12T09:31:43.244Z,15.70
2023-01-12T09:34:10.381Z,15.70
2023-01-12T09:36:39.474Z,15.70
2023-01-12T09:39:12.538Z,15.70
2023-01-12T09:41:59.544Z,15.70
2023-01-12T09:44:56.096Z,15.70
2023-01-12T09:47:56.782Z,15.60
2023-01-12T09:50:36.145Z,15.70
2023-01-12T09:53:13.881Z,15.60
2023-01-12T09:55:49.381Z,15.60
2023-01-12T09:58:37.161Z,15.60
2023-01-12T10:01:24.107Z,15.60
2023-01-12T10:03:56.329Z,15.60
2023-01-12T10:06:23.130Z,15.60
2023-01-12T10:09:21.499Z,15.60
2023-01-12T10:12:06.838Z,15.70
2023-01-12T10:14:33.505Z,15.60
2023-01-12T10:17:03.081Z,15.60
2023-01-12T10:20:03.396Z,15.70
2023-01-12T10:22:38.969Z,15.60
2023-01-12T10:25:29.627Z,15.70
2023-01-12T10:27:58.912Z,15.60
2023-01-12T10:30:28.499Z,15.60
2023-01-12T10:32:55.442Z,15.60
2023-01-12T10:35:25.298Z,15.70
2023-01-12T10:37:55.105Z,15.60
2023-01-12T10:40:32.959Z,15.60
2023-01-12T10:43:20.000Z,15.60
2023-01-12T10:46:04.680Z,15.60
2023-01-12T10:48:31.888Z,15.60
2023-01-12T10:51:01.503Z,15.60
2023-01-12T10:53:35.140Z,15.60
2023-01-12T10:56:31.290Z,15.60
2023-01-12T10:59:02.516Z,15.60
2023-01-12T11:02:07.055Z,15.60
2023-01-12T11:04:49.047Z,15.60
2023-01-12T11:07:29.037Z,15.60
2023-01-12T11:10:00.143Z,15.60
2023-01-12T11:12:38.261Z,15.60
2023-01-12T11:15:16.784Z,15.60
2023-01-12T11:18:04.944Z,15.60
2023-01-12T11:20:55.612Z,15.60
2023-01-12T11:23:41.627Z,15.60
2023-01-12T11:26:18.699Z,15.60
2023-01-12T11:28:50.134Z,15.60
2023-01-12T11:31:19.826Z,15.60
2023-01-12T11:33:57.356Z,15.60
2023-01-12T11:36:39.592Z,15.60
2023-01-12T11:39:12.083Z,15.60
2023-01-12T11:42:10.126Z,15.60
2023-01-12T11:44:43.536Z,15.60
2023-01-12T11:47:28.721Z,15.60
2023-01-12T11:50:18.291Z,15.60
2023-01-12T11:52:45.715Z,15.60
2023-01-12T11:55:20.394Z,15.60
2023-01-12T11:57:49.857Z,15.60
2023-01-12T12:00:22.815Z,15.60
2023-01-12T12:03:06.554Z,15.60
2023-01-12T12:05:36.335Z,15.60
2023-01-12T12:08:13.442Z,15.60
2023-01-12T12:10:47.215Z,15.60
2023-01-12T12:13:13.887Z,15.60
2023-01-12T12:15:54.653Z,15.60
2023-01-12T12:18:50.411Z,15.60
2023-01-12T12:21:45.843Z,15.60
2023-01-12T12:24:25.928Z,15.60
2023-01-12T12:27:17.662Z,15.60
2023-01-12T12:29:50.579Z,15.60
2023-01-12T12:32:38.576Z,15.60
2023-01-12T12:35:23.991Z,15.60
2023-01-12T12:37:57.221Z,15.60
2023-01-12T12:41:11.857Z,15.60
2023-01-12T12:43:57.635Z,15.60
2023-01-12T12:46:35.693Z,15.60
2023-01-12T12:49:11.500Z,15.60
2023-01-12T12:51:40.223Z,15.60
2023-01-12T12:54:15.688Z,15.60
2023-01-12T12:56:43.396Z,15.60
2023-01-12T12:59:32.902Z,15.60
2023-01-12T13:02:04.033Z,15.60
2023-01-12T13:04:53.870Z,15.60
2023-01-12T13:07:22.237Z,15.60
2023-01-12T13:09:49.952Z,15.60
2023-01-12T13:12:33.938Z,15.60
2023-01-12T13:15:32.170Z,15.60
2023-01-12T13:17:59.504Z,15.60
2023-01-12T13:20:49.302Z,15.60
2023-01-12T13:23:52.012Z,15.60
2023-01-12T13:26:45.921Z,15.60
2023-01-12T13:29:27.994Z,15.50
2023-01-12T13:31:54.690Z,15.50
2023-01-12T13:34:42.139Z,15.50
2023-01-12T13:37:21.194Z,15.50
2023-01-12T13:40:11.730Z,15.50
2023-01-12T13:42:57.472Z,15.50
2023-01-12T13:45:24.798Z,15.50
2023-01-12T13:47:56.338Z,15.50
2023-01-12T13:50:25.787Z,15.50
2023-01-12T13:53:03.419Z,15.50
2023-01-12T13:55:32.138Z,15.50
2023-01-12T13:58:21.373Z,15.50
2023-01-12T14:01:01.635Z,15.50
2023-01-12T14:03:37.439Z,15.50
2023-01-12T14:06:25.717Z,15.50
2023-01-12T14:09:06.731Z,15.50
2023-01-12T14:12:20.938Z,15.50
2023-01-12T14:15:46.909Z,15.50
2023-01-12T14:18:45.245Z,15.50
2023-01-12T14:21:43.934Z,15.50
2023-01-12T14:24:33.887Z,15.50
2023-01-12T14:27:19.626Z,15.50
2023-01-12T14:30:00.405Z,15.50
2023-01-12T14:33:05.399Z,15.50
2023-01-12T14:35:55.490Z,15.50
2023-01-12T14:38:33.168Z,15.50
2023-01-12T14:42:10.601Z,15.50
2023-01-12T14:45:07.060Z,15.50
2023-01-12T14:47:41.812Z,15.50
2023-01-12T14:50:12.495Z,15.40
2023-01-12T14:52:45.030Z,15.50
2023-01-12T14:55:25.409Z,15.40
2023-01-12T14:57:59.332Z,15.50
2023-01-12T15:00:29.032Z,15.40
2023-01-12T15:02:59.692Z,15.50
2023-01-12T15:05:31.544Z,15.50
2023-01-12T15:08:02.319Z,15.50
2023-01-12T15:10:33.788Z,15.50
2023-01-12T15:13:24.905Z,15.50
2023-01-12T15:16:10.896Z,15.50
2023-01-12T15:18:56.740Z,15.40
2023-01-12T15:21:43.278Z,15.50
2023-01-12T15:24:49.286Z,15.40
2023-01-12T15:27:21.277Z,15.40
2023-01-12T15:29:48.541Z,15.40
2023-01-12T15:32:49.799Z,15.40
2023-01-12T15:35:21.500Z,15.40
2023-01-12T15:37:48.299Z,15.40
2023-01-12T15:40:15.767Z,15.40
2023-01-12T15:42:42.547Z,15.40
2023-01-12T15:45:34.584Z,15.40
2023-01-12T15:48:05.624Z,15.40
2023-01-12T15:50:34.377Z,15.40
2023-01-12T15:53:01.679Z,15.40
2023-01-12T15:55:31.218Z,15.40
2023-01-12T15:57:58.167Z,15.40
2023-01-12T16:00:25.203Z,15.40
2023-01-12T16:02:52.527Z,15.40
2023-01-12T16:05:22.476Z,15.40
2023-01-12T16:07:49.765Z,15.40
2023-01-12T16:10:17.460Z,15.40
2023-01-12T16:12:45.690Z,15.40
2023-01-12T16:15:22.899Z,15.40
2023-01-12T16:17:50.193Z,15.40
2023-01-12T16:20:19.075Z,15.40
2023-01-12T16:22:47.030Z,15.40
2023-01-12T16:25:14.486Z,15.40
2023-01-12T16:27:41.596Z,15.40
2023-01-12T16:30:13.473Z,15.40
2023-01-12T16:32:45.643Z,15.40
2023-01-12T16:35:13.175Z,15.40
2023-01-12T16:37:40.308Z,15.50
2023-01-12T16:40:07.757Z,15.50
2023-01-12T16:42:34.592Z,15.40
2023-01-12T16:45:01.331Z,15.50
2023-01-12T16:47:28.902Z,15.50
2023-01-12T16:49:56.291Z,15.50
2023-01-12T16:52:23.097Z,15.50
2023-01-12T16:54:49.829Z,15.50
2023-01-12T16:57:17.981Z,15.40
2023-01-12T16:59:45.071Z,15.50
2023-01-12T17:02:16.549Z,15.50
2023-01-12T17:04:44.871Z,15.50
2023-01-12T17:07:12.406Z,15.50
2023-01-12T17:09:40.069Z,15.50
2023-01-12T17:12:07.617Z,15.50
2023-01-12T17:14:35.352Z,15.50
2023-01-12T17:17:05.400Z,15.50
2023-01-12T17:19:34.074Z,15.50
2023-01-12T17:22:02.012Z,15.50
2023-01-12T17:24:30.608Z,15.50
2023-01-12T17:26:58.346Z,15.50
2023-01-12T17:29:26.699Z,15.50
2023-01-12T17:31:56.386Z,15.50
2023-01-12T17:34:23.541Z,15.50
2023-01-12T17:36:50.375Z,15.50
2023-01-12T17:39:17.114Z,15.50
2023-01-12T17:42:02.520Z,15.60
2023-01-12T17:44:30.272Z,15.50
2023-01-12T17:46:57.364Z,15.60
2023-01-12T17:49:24.346Z,15.60
2023-01-12T17:51:51.383Z,15.60
2023-01-12T17:54:18.419Z,15.60
2023-01-12T17:56:45.612Z,15.60
2023-01-12T17:59:18.095Z,15.60
2023-01-12T18:01:46.124Z,15.60
2023-01-12T18:04:13.828Z,15.60
2023-01-12T18:06:40.665Z,15.60
2023-01-12T18:09:09.131Z,15.60
2023-01-12T18:11:36.159Z,15.60
2023-01-12T18:14:03.583Z,15.60
2023-01-12T18:16:30.475Z,15.60
2023-01-12T18:18:57.747Z,15.60
2023-01-12T18:21:27.025Z,15.60
2023-01-12T18:23:55.698Z,15.60
2023-01-12T18:26:31.214Z,15.60
2023-01-12T18:28:58.627Z,15.60
2023-01-12T18:31:28.573Z,15.60
2023-01-12T18:34:05.373Z,15.60
2023-01-12T18:36:34.529Z,15.60
2023-01-12T18:39:01.942Z,15.60
2023-01-12T18:41:47.137Z,15.60
2023-01-12T18:44:13.868Z,15.60
2023-01-12T18:47:01.351Z,15.60
2023-01-12T18:49:32.055Z,15.60
2023-01-12T18:52:17.548Z,15.60
2023-01-12T18:54:47.193Z,15.60
2023-01-12T18:57:17.533Z,15.60
2023-01-12T18:59:45.300Z,15.50
2023-01-12T19:02:13.095Z,15.50
2023-01-12T19:04:49.277Z,15.50
2023-01-12T19:07:32.849Z,15.50
2023-01-12T19:10:00.285Z,15.50
2023-01-12T19:12:27.605Z,15.50
2023-01-12T19:15:12.787Z,15.50
2023-01-12T19:17:41.933Z,15.50
2023-01-12T19:20:14.965Z,15.50
2023-01-12T19:23:00.323Z,15.50
2023-01-12T19:25:45.824Z,15.50
2023-01-12T19:28:35.635Z,15.50
2023-01-12T19:31:05.591Z,15.50
2023-01-12T19:33:33.107Z,15.50
2023-01-12T19:36:09.060Z,15.50
2023-01-12T19:38:37.006Z,15.50
2023-01-12T19:41:14.177Z,15.50
2023-01-12T19:43:45.207Z,15.40
2023-01-12T19:46:14.638Z,15.50
2023-01-12T19:48:41.770Z,15.40
2023-01-12T19:51:10.985Z,15.40
2023-01-12T19:53:39.030Z,15.40
2023-01-12T19:56:10.326Z,15.40
2023-01-12T19:58:37.216Z,15.40
2023-01-12T20:01:04.140Z,15.40
2023-01-12T20:03:30.888Z,15.40
2023-01-12T20:05:57.593Z,15.40
2023-01-12T20:08:25.470Z,15.40
2023-01-12T20:10:57.940Z,15.40
2023-01-12T20:13:25.214Z,15.40
2023-01-12T20:15:52.975Z,15.40
2023-01-12T20:18:19.931Z,15.40
2023-01-12T20:20:47.311Z,15.40
2023-01-12T20:23:15.059Z,15.40
2023-01-12T20:25:42.860Z,15.40
2023-01-12T20:28:12.026Z,15.40
2023-01-12T20:30:40.878Z,15.40
2023-01-12T20:33:08.108Z,15.40
2023-01-12T20:35:35.434Z,15.40
2023-01-12T20:38:06.524Z,15.40
2023-01-12T20:40:33.294Z,15.40
2023-01-12T20:43:00.033Z,15.30
2023-01-12T20:45:26.732Z,15.40
2023-01-12T20:47:55.066Z,15.40
2023-01-12T20:50:23.147Z,15.40
2023-01-12T20:52:50.869Z,15.50
2023-01-12T20:55:17.754Z,15.50
2023-01-12T20:57:44.623Z,15.60
2023-01-12T21:00:12.646Z,15.70
2023-01-12T21:02:40.508Z,15.80
2023-01-12T21:05:09.036Z,16.00
2023-01-12T21:07:35.820Z,16.00
2023-01-12T21:10:02.658Z,16.10
2023-01-12T21:12:29.430Z,16.20
2023-01-12T21:14:56.229Z,16.30
2023-01-12T21:17:23.025Z,16.30
2023-01-12T21:19:49.761Z,16.40
2023-01-12T21:22:16.641Z,16.50
2023-01-12T21:24:43.487Z,16.50
2023-01-12T21:27:10.198Z,16.60
2023-01-12T21:29:36.975Z,16.60
2023-01-12T21:32:04.014Z,16.60
2023-01-12T21:34:30.745Z,16.70
2023-01-12T21:36:57.870Z,16.70
2023-01-12T21:39:24.586Z,16.70
2023-01-12T21:42:09.854Z,16.70
2023-01-12T21:44:36.619Z,16.70
2023-01-12T21:47:03.383Z,16.80
2023-01-12T21:49:30.140Z,16.80
2023-01-12T21:51:56.920Z,16.70
2023-01-12T21:54:23.835Z,16.70
2023-01-12T21:56:50.553Z,16.80
2023-01-12T21:59:18.414Z,16.80
2023-01-12T22:01:45.428Z,16.70
2023-01-12T22:04:12.297Z,16.70
2023-01-12T22:06:39.079Z,16.70
2023-01-12T22:09:05.853Z,16.70
2023-01-12T22:11:32.530Z,16.70
2023-01-12T22:13:59.240Z,16.70
2023-01-12T22:16:26.037Z,16.70
2023-01-12T22:18:52.984Z,16.70
2023-01-12T22:21:21.075Z,16.60
2023-01-12T22:23:48.665Z,16.70
2023-01-12T22:26:17.027Z,16.70
2023-01-12T22:28:45.268Z,16.60
2023-01-12T22:31:21.328Z,16.60
2023-01-12T22:33:54.850Z,16.60
2023-01-12T22:36:21.731Z,16.50
2023-01-12T22:38:48.464Z,16.60
2023-01-12T22:41:16.512Z,16.50
2023-01-12T22:43:44.633Z,16.50
2023-01-12T22:46:23.286Z,16.50
2023-01-12T22:48:55.197Z,16.50
2023-01-12T22:51:26.609Z,16.50
2023-01-12T22:53:55.444Z,16.50
2023-01-12T22:56:22.678Z,16.40
2023-01-12T22:58:51.859Z,16.40
2023-01-12T23:01:19.938Z,16.40
2023-01-12T23:03:48.075Z,16.40
2023-01-12T23:06:16.820Z,16.40
2023-01-12T23:08:44.848Z,16.40
2023-01-12T23:11:17.101Z,16.40
2023-01-12T23:13:45.121Z,16.30
2023-01-12T23:16:13.785Z,16.30
2023-01-12T23:18:42.002Z,16.30
2023-01-12T23:21:13.963Z,16.30
2023-01-12T23:23:49.334Z,16.30
2023-01-12T23:26:19.782Z,16.20
2023-01-12T23:28:52.251Z,16.20
2023-01-12T23:31:22.026Z,16.20
2023-01-12T23:33:49.934Z,16.20
2023-01-12T23:36:19.204Z,16.20
2023-01-12T23:38:46.087Z,16.20
2023-01-12T23:41:18.397Z,16.20
2023-01-12T23:43:49.693Z,16.20
2023-01-12T23:46:20.025Z,16.10
2023-01-12T23:48:46.781Z,16.10
2023-01-12T23:51:13.487Z,16.10
2023-01-12T23:53:40.131Z,16.10
2023-01-12T23:56:10.321Z,16.10
2023-01-12T23:58:37.731Z,16.10
